Ceres, Washington
Current Conditions -  °F | °C
As of 10:15 AM on Thursday 29 Jan 2015 (Local Time) from KCLS Reporting Station
Overcast Overcast  
Wind Chill: 41°   Ceiling: 600
Heat Index: 45°   Visibility: 10mi
Dew Point: 45°   Wind: 6mph
Humidity: 100%   Direction: 30°NNE
Pressure: 30.35"   Gusts: NA
Location:  46.6561°N, 122.993°W
Report Text: KCLS 291815Z AUTO 03005KT 10SM OVC006 07/07 A3035 RMK AO2
Loading
Personal Weather Stations






























Interactive Weather Map New forecast layout! Learn more

10-Day Weather Forecast

Advertisements
Track Severe Weather on mobile